Portada
METAR-TAF:

METAR-TAF

Aeroports :

Aeroport de Sabadell

Sabadell, Espanya

latitud: 41-31N, longitud: 002-06E, altitud: 250 m

Observació

L'informe es va fer fa 35 minuts, a les 07:00 UTC
Vent 1 kt del Est
Temperatura 22°C
Humitat 57%
Pressió 1026 hPa
Visibilitat 10 km o més
sense núvols per sota de 1500 mi sense presència de cumulonimbus.

METAR: LELL 270700Z AUTO 08001KT CAVOK 22/13 Q1026

Hora: 09:35 (07:35 UTC)

Pronòstic

L'informe es va fer fa 5 hores i 35 minuts, a les 02:00 UTC
Pronòstic vàlid del 27 a les 03 UTC al 28 a les 03 UTC
Vent 3 kt amb direcció variable
Visibilitat 10 km o més
Escasses núvols a una alçada de 5000 ft
Evolucionant progressivament
l' 27 a les 09 UTC al 27 a les 11 UTC
Vent 10 kt del Sud-Est
Evolucionant progressivament
l' 27 a les 18 UTC al 27 a les 20 UTC
Vent 5 kt amb direcció variable

TAF: LELL 270200Z 2703/2803 VRB03KT 9999 FEW050 TX28/2712Z TN15/2706Z BECMG 2709/2711 13010KT BECMG 2718/2720 VRB05KT

Observacions i pronòstics meteorològics de més de 4000 aeroports (METAR i TAF).

Les estacions disponibles són els punts grocs i vermells al mapa.

Posi el ratolí al punt desitjat per veure el nom de l'estació.

Feu clic per veure les observacions i els pronòstics meteorològics.

Per canviar el mapa: feu clic els botons verds amb una creu de color negre per apropar; al botó verd amb un guió per allunyar la imatge; o en les fletxes verdes per a mapes adjacents.


METAR-TAF: